Time;durP1;ratioP1;P1;durP2;ratioP2;P2;SDS_P1;SDS_P2;PMS_P1;PMS_P2;Temp;Humidity;BMP_temperature;BMP_pressure;BME280_temperature;BME280_humidity;BME280_pressure;Samples;Min_cycle;Max_cycle;Signal;HPM_P1;HPM_P2
2023/05/27 00:00:43;;;;;;;;;;;24.50;58.40;;;;;;5106905;27;42904;-85
2023/05/27 00:03:08;;;;;;;;;;;24.50;58.30;;;;;;5106758;27;42941;-85
2023/05/27 00:05:34;;;;;;;;;;;24.50;57.80;;;;;;5107109;27;42845;-83
2023/05/27 00:07:59;;;;;;;;;;;24.60;57.80;;;;;;5106694;27;42862;-81
2023/05/27 00:10:25;;;;;;;;;;;24.60;58.30;;;;;;5106094;27;42961;-82
2023/05/27 00:12:50;;;;;;;;;;;24.50;58.50;;;;;;5106381;27;42980;-81
2023/05/27 00:15:17;;;;;;;;;;;24.40;58.60;;;;;;5106605;27;42999;-84
2023/05/27 00:17:43;;;;;;;;;;;24.40;58.30;;;;;;5087366;27;43702;-84
2023/05/27 00:20:09;;;;;;;;;;;24.40;58.20;;;;;;5106092;27;42878;-84
2023/05/27 00:22:36;;;;;;;;;;;24.40;58.10;;;;;;5106870;27;42898;-83
2023/05/27 00:25:02;;;;;;;;;;;24.40;58.00;;;;;;5104646;27;43015;-84
2023/05/27 00:27:27;;;;;;;;;;;24.40;57.90;;;;;;5106428;27;42926;-84
2023/05/27 00:29:53;;;;;;;;;;;24.40;57.80;;;;;;5106691;27;42953;-83
2023/05/27 00:32:18;;;;;;;;;;;24.30;58.10;;;;;;5106835;27;42818;-80
2023/05/27 00:34:44;;;;;;;;;;;24.30;58.40;;;;;;5106555;27;43331;-83
2023/05/27 00:37:10;;;;;;;;;;;24.20;58.70;;;;;;5105762;27;42997;-82
2023/05/27 00:39:35;;;;;;;;;;;24.10;58.90;;;;;;5099098;27;42963;-75
2023/05/27 00:42:01;;;;;;;;;;;24.10;59.60;;;;;;5085520;27;43456;-82
2023/05/27 00:44:27;;;;;;;;;;;24.10;59.80;;;;;;5085562;27;42922;-83
2023/05/27 00:46:53;;;;;;;;;;;24.10;60.60;;;;;;5085471;27;42955;-82
2023/05/27 00:49:19;;;;;;;;;;;24.10;61.00;;;;;;5086061;27;42964;-83
2023/05/27 00:51:45;;;;;;;;;;;24.10;60.90;;;;;;5084817;28;43456;-82
2023/05/27 00:54:11;;;;;;;;;;;24.10;61.60;;;;;;5085403;27;42730;-82
2023/05/27 00:56:37;;;;;;;;;;;24.20;61.40;;;;;;5066537;28;43006;-84
2023/05/27 00:59:03;;;;;;;;;;;24.10;62.10;;;;;;5085469;27;42915;-83
2023/05/27 01:01:28;;;;;;;;;;;24.90;62.10;;;;;;5086327;27;42877;-84
2023/05/27 01:03:55;;;;;;;;;;;24.10;62.40;;;;;;5095778;27;44213;-81
2023/05/27 01:06:25;;;;;;;;;;;24.10;62.50;;;;;;5087526;27;44546;-84
2023/05/27 01:08:53;;;;;;;;;;;24.10;62.10;;;;;;5106092;27;42937;-84
2023/05/27 01:11:21;;;;;;;;;;;24.10;62.50;;;;;;5105773;27;43677;-84
2023/05/27 01:13:49;;;;;;;;;;;24.00;61.90;;;;;;5106194;27;42944;-84
2023/05/27 01:16:16;;;;;;;;;;;24.10;63.20;;;;;;5105368;27;43881;-82
2023/05/27 01:18:44;;;;;;;;;;;24.10;62.70;;;;;;5102644;27;43005;-84
2023/05/27 01:21:10;;;;;;;;;;;24.00;62.00;;;;;;5104597;27;42974;-80
2023/05/27 01:23:39;;;;;;;;;;;24.10;61.90;;;;;;5105610;27;42992;-83
2023/05/27 01:26:05;;;;;;;;;;;24.00;61.80;;;;;;5105461;27;43564;-82
2023/05/27 01:28:31;;;;;;;;;;;24.00;62.40;;;;;;5086942;27;42707;-85
2023/05/27 01:31:10;;;;;;;;;;;23.90;61.80;;;;;;5105305;27;44019;-83
2023/05/27 01:33:36;;;;;;;;;;;24.00;62.60;;;;;;5102522;27;42980;-84
2023/05/27 01:36:06;;;;;;;;;;;24.00;62.50;;;;;;5102781;27;42878;-84
2023/05/27 01:38:32;;;;;;;;;;;24.00;62.60;;;;;;5104695;27;43038;-84
2023/05/27 01:40:58;;;;;;;;;;;23.90;62.00;;;;;;5105048;27;42949;-83
2023/05/27 01:43:24;;;;;;;;;;;23.90;62.60;;;;;;5105592;27;42787;-85
2023/05/27 01:45:49;;;;;;;;;;;24.00;62.80;;;;;;5104501;27;43101;-82
2023/05/27 01:48:15;;;;;;;;;;;24.00;62.70;;;;;;5085933;27;43593;-83
2023/05/27 01:50:40;;;;;;;;;;;24.00;62.20;;;;;;5105139;27;43698;-84
2023/05/27 01:53:06;;;;;;;;;;;24.00;62.70;;;;;;5105695;27;42966;-84
2023/05/27 01:55:31;;;;;;;;;;;24.00;62.10;;;;;;5105013;27;43032;-84
2023/05/27 01:57:57;;;;;;;;;;;24.00;62.90;;;;;;5105613;27;43009;-82
2023/05/27 02:00:22;;;;;;;;;;;24.00;62.90;;;;;;5105154;27;44105;-84
2023/05/27 02:02:48;;;;;;;;;;;24.00;62.40;;;;;;5104807;27;42952;-84
2023/05/27 02:05:14;;;;;;;;;;;24.00;63.00;;;;;;5104863;27;42947;-83
2023/05/27 02:07:39;;;;;;;;;;;23.90;62.50;;;;;;5105133;27;43317;-81
2023/05/27 02:10:05;;;;;;;;;;;23.90;63.10;;;;;;5105422;27;43386;-85
2023/05/27 02:12:30;;;;;;;;;;;23.90;63.10;;;;;;5105480;27;42901;-85
2023/05/27 02:14:56;;;;;;;;;;;23.80;62.50;;;;;;5105225;27;43001;-84
2023/05/27 02:17:24;;;;;;;;;;;23.80;62.70;;;;;;5104579;27;42862;-81
2023/05/27 02:19:50;;;;;;;;;;;23.80;63.40;;;;;;5105347;27;43319;-82
2023/05/27 02:22:15;;;;;;;;;;;23.80;63.50;;;;;;5108291;27;43019;-84
2023/05/27 02:24:41;;;;;;;;;;;23.70;62.90;;;;;;5108559;27;42836;-85
2023/05/27 02:27:06;;;;;;;;;;;23.80;63.60;;;;;;5109016;27;42957;-83
2023/05/27 02:29:32;;;;;;;;;;;23.90;63.70;;;;;;5089683;27;42970;-85
2023/05/27 02:31:58;;;;;;;;;;;23.80;63.60;;;;;;5107564;27;42976;-84
2023/05/27 02:34:23;;;;;;;;;;;23.90;63.60;;;;;;5108520;27;42980;-84
2023/05/27 02:36:49;;;;;;;;;;;23.90;63.50;;;;;;5106457;27;43153;-83
2023/05/27 02:39:14;;;;;;;;;;;23.90;62.70;;;;;;5108577;27;42878;-84
2023/05/27 02:41:40;;;;;;;;;;;23.90;62.70;;;;;;5108212;27;42921;-84
2023/05/27 02:44:05;;;;;;;;;;;23.80;62.50;;;;;;5108039;27;42870;-84
2023/05/27 02:46:31;;;;;;;;;;;23.90;62.40;;;;;;5108148;27;42763;-81
2023/05/27 02:48:56;;;;;;;;;;;23.90;62.40;;;;;;5108365;27;43795;-84
2023/05/27 02:51:22;;;;;;;;;;;23.90;62.90;;;;;;5107859;27;42940;-84
2023/05/27 02:53:48;;;;;;;;;;;23.90;62.30;;;;;;5105287;27;43179;-84
2023/05/27 02:56:13;;;;;;;;;;;23.90;62.30;;;;;;5107599;27;42980;-83
2023/05/27 02:58:39;;;;;;;;;;;23.80;62.10;;;;;;5106260;27;43466;-84
2023/05/27 03:01:05;;;;;;;;;;;24.00;62.90;;;;;;5108001;27;43008;-84
2023/05/27 03:03:30;;;;;;;;;;;23.80;62.10;;;;;;5108367;27;42850;-84
2023/05/27 03:05:56;;;;;;;;;;;23.80;63.30;;;;;;5095873;27;42942;-83
2023/05/27 03:08:21;;;;;;;;;;;23.80;62.60;;;;;;5087407;27;42934;-84
2023/05/27 03:10:47;;;;;;;;;;;23.80;62.70;;;;;;5087195;27;42971;-84
2023/05/27 03:13:13;;;;;;;;;;;23.80;62.70;;;;;;5087210;27;42904;-84
2023/05/27 03:15:38;;;;;;;;;;;23.80;62.90;;;;;;5087025;27;42862;-85
2023/05/27 03:18:04;;;;;;;;;;;23.70;62.50;;;;;;5085985;27;44141;-83
2023/05/27 03:20:29;;;;;;;;;;;23.70;63.20;;;;;;5087140;27;42875;-81
2023/05/27 03:22:55;;;;;;;;;;;23.70;62.70;;;;;;5086672;27;42817;-84
2023/05/27 03:25:22;;;;;;;;;;;23.70;62.60;;;;;;5086268;27;60662;-84
2023/05/27 03:27:48;;;;;;;;;;;23.70;62.60;;;;;;5087015;27;42982;-84
2023/05/27 03:30:14;;;;;;;;;;;23.80;62.40;;;;;;5086890;27;42919;-84
2023/05/27 03:32:39;;;;;;;;;;;23.80;62.40;;;;;;5087018;28;42935;-82
2023/05/27 03:35:05;;;;;;;;;;;23.90;62.40;;;;;;5087697;27;43085;-82
2023/05/27 03:37:31;;;;;;;;;;;23.80;62.40;;;;;;5100403;27;43081;-85
2023/05/27 03:39:57;;;;;;;;;;;23.80;62.40;;;;;;5107643;27;42996;-85
2023/05/27 03:42:22;;;;;;;;;;;23.80;62.90;;;;;;5107021;27;43479;-85
2023/05/27 03:44:48;;;;;;;;;;;23.80;62.80;;;;;;5106959;27;42982;-85
2023/05/27 03:47:13;;;;;;;;;;;23.80;62.40;;;;;;5106933;27;43066;-85
2023/05/27 03:49:39;;;;;;;;;;;23.80;63.00;;;;;;5105531;27;44145;-84
2023/05/27 03:52:05;;;;;;;;;;;23.90;62.10;;;;;;5107362;27;43697;-85
2023/05/27 03:54:30;;;;;;;;;;;23.80;61.90;;;;;;5107248;27;42909;-85
2023/05/27 03:56:56;;;;;;;;;;;23.90;61.50;;;;;;5106282;27;43004;-85
2023/05/27 03:59:21;;;;;;;;;;;23.80;62.10;;;;;;5107020;27;42880;-85
2023/05/27 04:01:47;;;;;;;;;;;23.80;62.10;;;;;;5105060;27;43328;-85
2023/05/27 04:04:13;;;;;;;;;;;23.80;62.20;;;;;;5107494;27;42962;-85
2023/05/27 04:06:38;;;;;;;;;;;23.30;61.40;;;;;;5106801;27;42912;-85
2023/05/27 04:09:04;;;;;;;;;;;23.80;61.90;;;;;;5106997;27;42906;-85
2023/05/27 04:11:30;;;;;;;;;;;23.80;61.90;;;;;;5087415;27;45258;-84
2023/05/27 04:13:56;;;;;;;;;;;23.80;62.20;;;;;;5106233;27;43167;-84
2023/05/27 04:16:22;;;;;;;;;;;23.70;62.10;;;;;;5106317;27;43902;-85
2023/05/27 04:18:50;;;;;;;;;;;23.80;62.80;;;;;;5104840;27;43186;-85
2023/05/27 04:21:16;;;;;;;;;;;23.80;62.30;;;;;;5106380;27;43000;-85
2023/05/27 04:23:41;;;;;;;;;;;23.80;62.90;;;;;;5107133;27;42900;-84
2023/05/27 04:26:07;;;;;;;;;;;23.70;62.80;;;;;;5088210;27;44375;-85
2023/05/27 04:28:34;;;;;;;;;;;24.00;62.90;;;;;;5105578;27;42950;-83
2023/05/27 04:30:59;;;;;;;;;;;23.80;61.90;;;;;;5093677;27;43068;-83
2023/05/27 04:33:25;;;;;;;;;;;23.80;62.40;;;;;;5099757;27;43072;-84
2023/05/27 04:35:53;;;;;;;;;;;23.80;61.70;;;;;;5099689;27;42942;-83
2023/05/27 04:38:22;;;;;;;;;;;23.80;62.20;;;;;;5095108;27;42926;-83
2023/05/27 04:40:52;;;;;;;;;;;23.80;62.00;;;;;;5106217;27;43802;-83
2023/05/27 04:43:21;;;;;;;;;;;23.80;62.50;;;;;;5103846;27;43009;-81
2023/05/27 04:45:47;;;;;;;;;;;23.70;61.80;;;;;;5100355;27;43630;-82
2023/05/27 04:48:13;;;;;;;;;;;23.70;61.80;;;;;;5096435;27;42942;-83
2023/05/27 04:50:40;;;;;;;;;;;23.60;61.30;;;;;;5096367;27;43384;-77
2023/05/27 04:53:06;;;;;;;;;;;23.70;62.10;;;;;;5094952;27;43136;-82
2023/05/27 04:55:32;;;;;;;;;;;23.70;61.60;;;;;;5094899;27;43368;-81
2023/05/27 04:57:58;;;;;;;;;;;23.70;61.70;;;;;;5094541;27;43139;-82
2023/05/27 05:00:35;;;;;;;;;;;23.70;62.60;;;;;;5098973;27;43091;-84
2023/05/27 05:03:02;;;;;;;;;;;23.70;62.30;;;;;;5101213;27;43025;-83
2023/05/27 05:05:28;;;;;;;;;;;23.70;62.50;;;;;;5104816;27;43536;-82
2023/05/27 05:07:53;;;;;;;;;;;23.70;62.60;;;;;;5103794;27;42810;-84
2023/05/27 05:10:19;;;;;;;;;;;23.70;62.80;;;;;;5091560;27;43071;-82
2023/05/27 05:12:44;;;;;;;;;;;23.70;64.10;;;;;;5085347;28;42910;-78
2023/05/27 05:15:10;;;;;;;;;;;23.70;63.50;;;;;;5085374;27;43516;-79
2023/05/27 05:17:35;;;;;;;;;;;23.60;63.70;;;;;;5102012;27;43008;-83
2023/05/27 05:20:01;;;;;;;;;;;23.70;64.00;;;;;;5104798;27;43105;-82
2023/05/27 05:22:28;;;;;;;;;;;23.70;64.10;;;;;;5091980;27;43181;-80
2023/05/27 05:24:54;;;;;;;;;;;23.70;63.50;;;;;;5085974;27;43626;-82
2023/05/27 05:27:19;;;;;;;;;;;23.70;64.00;;;;;;5094653;27;42985;-82
2023/05/27 05:29:45;;;;;;;;;;;23.80;64.00;;;;;;5084873;28;43082;-82
2023/05/27 05:32:11;;;;;;;;;;;23.80;64.00;;;;;;5090436;27;42942;-81
2023/05/27 05:34:37;;;;;;;;;;;23.80;64.00;;;;;;5090827;27;42837;-83
2023/05/27 05:37:03;;;;;;;;;;;23.80;63.40;;;;;;5095379;27;43102;-83
2023/05/27 05:39:28;;;;;;;;;;;23.80;63.30;;;;;;5095937;27;43975;-81
2023/05/27 05:41:54;;;;;;;;;;;23.80;63.50;;;;;;5092246;27;43021;-82
2023/05/27 05:44:19;;;;;;;;;;;23.80;63.50;;;;;;5076101;27;44139;-81
2023/05/27 05:46:45;;;;;;;;;;;23.80;63.80;;;;;;5094994;27;43068;-83
2023/05/27 05:49:10;;;;;;;;;;;23.90;63.60;;;;;;5069778;27;43017;-82
2023/05/27 05:51:36;;;;;;;;;;;23.90;63.00;;;;;;5092779;27;42945;-82
2023/05/27 05:54:01;;;;;;;;;;;24.00;63.70;;;;;;5099039;27;43057;-82
2023/05/27 05:56:27;;;;;;;;;;;23.90;63.00;;;;;;5093557;27;42871;-84
2023/05/27 05:58:53;;;;;;;;;;;23.90;63.50;;;;;;5097423;27;43112;-89
2023/05/27 06:01:18;;;;;;;;;;;24.00;63.50;;;;;;5098762;27;43039;-85
2023/05/27 06:03:44;;;;;;;;;;;24.00;63.10;;;;;;5096732;27;43555;-84
2023/05/27 06:06:10;;;;;;;;;;;24.10;63.40;;;;;;5097427;27;43138;-93
2023/05/27 06:08:35;;;;;;;;;;;24.10;62.70;;;;;;5094700;27;43448;-91
2023/05/27 06:11:01;;;;;;;;;;;24.10;62.60;;;;;;5097024;27;42851;-88
2023/05/27 06:13:27;;;;;;;;;;;24.10;62.40;;;;;;5097359;27;43257;-84
2023/05/27 06:15:52;;;;;;;;;;;24.10;61.70;;;;;;5094518;27;43057;-90
2023/05/27 06:18:17;;;;;;;;;;;24.10;62.30;;;;;;5095894;27;43833;-74
2023/05/27 06:20:43;;;;;;;;;;;24.10;62.20;;;;;;5097408;27;42973;-75
2023/05/27 06:23:09;;;;;;;;;;;24.10;62.20;;;;;;5095867;27;43866;-86
2023/05/27 06:25:34;;;;;;;;;;;24.10;62.10;;;;;;5095327;27;42933;-87
2023/05/27 06:28:00;;;;;;;;;;;23.90;61.20;;;;;;5092984;27;43128;-85
2023/05/27 06:30:26;;;;;;;;;;;24.20;61.40;;;;;;5097519;27;42890;-86
2023/05/27 06:32:52;;;;;;;;;;;24.20;62.00;;;;;;5096263;27;43447;-81
2023/05/27 06:35:17;;;;;;;;;;;24.20;62.10;;;;;;5096271;27;42903;-83
2023/05/27 06:37:43;;;;;;;;;;;24.10;61.70;;;;;;5097963;27;43729;-83
2023/05/27 06:40:09;;;;;;;;;;;24.20;62.50;;;;;;5105595;27;42913;-83
2023/05/27 06:42:35;;;;;;;;;;;24.20;62.10;;;;;;5105089;27;42987;-82
2023/05/27 06:45:00;;;;;;;;;;;24.20;62.10;;;;;;5098696;27;42866;-82
2023/05/27 06:47:25;;;;;;;;;;;24.10;62.60;;;;;;5096810;27;42952;-83
2023/05/27 06:49:51;;;;;;;;;;;24.30;62.70;;;;;;5097284;27;43038;-83
2023/05/27 06:52:16;;;;;;;;;;;24.10;61.90;;;;;;5092485;27;43132;-85
2023/05/27 06:54:42;;;;;;;;;;;24.20;62.40;;;;;;5096283;27;42859;-78
2023/05/27 06:57:08;;;;;;;;;;;24.10;61.60;;;;;;5096192;27;43171;-84
2023/05/27 06:59:33;;;;;;;;;;;24.20;62.20;;;;;;5086657;28;42974;-84
2023/05/27 07:01:59;;;;;;;;;;;24.20;62.20;;;;;;5087967;27;43543;-84
2023/05/27 07:04:24;;;;;;;;;;;24.20;62.20;;;;;;5087914;27;42950;-85
2023/05/27 07:06:50;;;;;;;;;;;24.30;62.20;;;;;;5085744;28;43156;-83
2023/05/27 07:09:16;;;;;;;;;;;24.20;61.60;;;;;;5086748;28;42874;-85
2023/05/27 07:11:41;;;;;;;;;;;24.30;62.20;;;;;;5086845;27;44291;-85
2023/05/27 07:14:09;;;;;;;;;;;24.30;62.10;;;;;;5085595;27;42973;-85
2023/05/27 07:16:34;;;;;;;;;;;24.20;61.50;;;;;;5086752;28;42801;-84
2023/05/27 07:19:00;;;;;;;;;;;24.30;62.10;;;;;;5086512;28;42981;-85
2023/05/27 07:21:25;;;;;;;;;;;24.30;62.10;;;;;;5096656;27;43983;-83
2023/05/27 07:23:51;;;;;;;;;;;24.30;62.00;;;;;;5105305;27;42925;-88
2023/05/27 07:26:16;;;;;;;;;;;24.30;62.60;;;;;;5104603;27;43154;-88
2023/05/27 07:28:42;;;;;;;;;;;24.30;62.00;;;;;;5106445;27;42907;-86
2023/05/27 07:31:07;;;;;;;;;;;24.30;62.00;;;;;;5107204;27;43460;-88
2023/05/27 07:33:33;;;;;;;;;;;24.30;61.10;;;;;;5107176;27;42921;-88
2023/05/27 07:35:58;;;;;;;;;;;24.30;61.60;;;;;;5107234;27;42892;-87
2023/05/27 07:38:24;;;;;;;;;;;24.30;60.90;;;;;;5089064;27;42993;-90
2023/05/27 07:40:49;;;;;;;;;;;24.30;61.10;;;;;;5107562;27;43572;-89
2023/05/27 07:43:15;;;;;;;;;;;24.30;60.20;;;;;;5107807;27;42936;-83
2023/05/27 07:45:40;;;;;;;;;;;24.30;60.20;;;;;;5107542;27;42839;-86
2023/05/27 07:48:06;;;;;;;;;;;24.30;60.80;;;;;;5107328;27;42818;-86
2023/05/27 07:50:31;;;;;;;;;;;24.30;60.50;;;;;;5106524;27;43615;-89
2023/05/27 07:52:57;;;;;;;;;;;24.30;59.90;;;;;;5107427;27;42854;-88
2023/05/27 07:55:23;;;;;;;;;;;24.30;60.00;;;;;;5107212;27;42958;-84
2023/05/27 07:57:48;;;;;;;;;;;24.30;59.40;;;;;;5107237;27;43073;-89
2023/05/27 08:00:14;;;;;;;;;;;24.30;59.70;;;;;;5107479;27;43478;-88
2023/05/27 08:02:39;;;;;;;;;;;24.30;58.90;;;;;;5107385;27;42903;-89
2023/05/27 08:05:06;;;;;;;;;;;24.30;58.80;;;;;;5107239;27;42863;-87
2023/05/27 08:07:31;;;;;;;;;;;24.30;58.10;;;;;;5107409;27;42897;-89
2023/05/27 08:09:57;;;;;;;;;;;24.30;57.40;;;;;;5106972;27;44170;-88
2023/05/27 08:12:22;;;;;;;;;;;24.30;57.50;;;;;;5106477;27;42895;-87
2023/05/27 08:14:48;;;;;;;;;;;24.30;57.50;;;;;;5106396;27;42871;-88
2023/05/27 08:17:14;;;;;;;;;;;24.30;56.60;;;;;;5106754;27;42836;-89
2023/05/27 08:19:40;;;;;;;;;;;24.30;56.80;;;;;;5105693;27;43420;-88
2023/05/27 08:22:08;;;;;;;;;;;24.30;57.50;;;;;;5106517;27;42838;-88
2023/05/27 08:24:36;;;;;;;;;;;24.30;57.50;;;;;;5105434;27;42936;-89
2023/05/27 08:27:02;;;;;;;;;;;24.30;57.20;;;;;;5106772;27;42917;-89
2023/05/27 08:29:30;;;;;;;;;;;24.30;56.70;;;;;;5105742;27;44224;-89
2023/05/27 08:31:56;;;;;;;;;;;24.30;55.60;;;;;;5106423;27;42972;-89
2023/05/27 08:34:22;;;;;;;;;;;24.30;56.10;;;;;;5106315;27;42923;-89
2023/05/27 08:36:47;;;;;;;;;;;24.30;56.50;;;;;;5106549;27;42981;-88
2023/05/27 08:39:13;;;;;;;;;;;24.30;56.90;;;;;;5106676;27;42891;-89
2023/05/27 08:41:39;;;;;;;;;;;24.30;56.40;;;;;;5106853;27;42853;-85
2023/05/27 08:44:05;;;;;;;;;;;24.30;56.20;;;;;;5106219;27;44831;-89
2023/05/27 08:46:31;;;;;;;;;;;24.40;56.50;;;;;;5106628;27;42964;-88
2023/05/27 08:48:58;;;;;;;;;;;24.30;56.10;;;;;;5106716;27;42975;-88
2023/05/27 08:51:23;;;;;;;;;;;24.30;56.10;;;;;;5106680;27;43024;-89
2023/05/27 08:53:49;;;;;;;;;;;24.30;56.30;;;;;;5106600;27;42936;-87
2023/05/27 08:56:17;;;;;;;;;;;24.30;56.60;;;;;;5106285;27;42929;-88
2023/05/27 08:58:42;;;;;;;;;;;24.30;56.60;;;;;;5105890;27;43518;-79
2023/05/27 09:01:08;;;;;;;;;;;24.30;56.70;;;;;;5105894;27;42969;-85
2023/05/27 09:03:34;;;;;;;;;;;24.30;56.90;;;;;;5106124;27;42874;-86
2023/05/27 09:06:03;;;;;;;;;;;24.30;57.00;;;;;;5106328;27;43055;-87
2023/05/27 09:08:29;;;;;;;;;;;24.30;57.20;;;;;;5104992;27;42970;-81
2023/05/27 09:10:55;;;;;;;;;;;24.30;57.20;;;;;;5105959;27;42950;-87
2023/05/27 09:13:27;;;;;;;;;;;24.30;57.60;;;;;;5105718;27;43799;-81
2023/05/27 09:16:00;;;;;;;;;;;24.40;57.50;;;;;;5106329;27;42857;-88
2023/05/27 09:18:27;;;;;;;;;;;24.40;57.40;;;;;;5106354;27;42793;-88
2023/05/27 09:20:53;;;;;;;;;;;24.40;56.80;;;;;;5105656;27;42845;-88
2023/05/27 09:23:19;;;;;;;;;;;24.40;57.10;;;;;;5105911;27;43842;-88
2023/05/27 09:25:44;;;;;;;;;;;24.40;56.90;;;;;;5105468;27;42914;-84
2023/05/27 09:28:10;;;;;;;;;;;24.40;56.40;;;;;;5105841;27;43514;-82
2023/05/27 09:30:36;;;;;;;;;;;24.40;55.50;;;;;;5086820;27;43177;-87
2023/05/27 09:33:03;;;;;;;;;;;24.40;55.50;;;;;;5086533;27;43516;-87
2023/05/27 09:35:28;;;;;;;;;;;24.40;55.10;;;;;;5105456;27;43004;-85
2023/05/27 09:37:54;;;;;;;;;;;24.40;55.90;;;;;;5105024;27;43558;-89
2023/05/27 09:40:19;;;;;;;;;;;24.40;55.90;;;;;;5105728;27;43065;-83
2023/05/27 09:42:46;;;;;;;;;;;24.30;55.60;;;;;;5105766;27;43166;-87
2023/05/27 09:45:15;;;;;;;;;;;24.40;56.20;;;;;;5105568;27;42760;-89
2023/05/27 09:48:01;;;;;;;;;;;24.40;56.20;;;;;;5105092;27;43712;-87
2023/05/27 09:50:28;;;;;;;;;;;26.90;58.00;;;;;;5105450;27;43015;-86
2023/05/27 09:52:55;;;;;;;;;;;24.40;56.10;;;;;;5105592;27;44223;-81
2023/05/27 09:55:20;;;;;;;;;;;24.40;56.60;;;;;;5105529;27;43056;-86
2023/05/27 09:57:47;;;;;;;;;;;24.40;56.60;;;;;;5104515;27;43793;-82
2023/05/27 10:00:16;;;;;;;;;;;24.40;56.50;;;;;;5105321;27;42874;-85
2023/05/27 10:02:42;;;;;;;;;;;24.40;56.80;;;;;;5104356;27;43622;-87
2023/05/27 10:05:08;;;;;;;;;;;24.40;56.30;;;;;;5105571;27;42964;-88
2023/05/27 10:07:38;;;;;;;;;;;24.40;56.50;;;;;;5105156;27;43548;-89
2023/05/27 10:10:08;;;;;;;;;;;24.40;56.30;;;;;;5104899;27;42747;-76
2023/05/27 10:12:35;;;;;;;;;;;24.40;56.30;;;;;;5104432;27;43320;-84
2023/05/27 10:15:00;;;;;;;;;;;24.40;56.60;;;;;;5086080;27;42949;-79
2023/05/27 10:17:26;;;;;;;;;;;24.40;56.70;;;;;;5105284;27;43759;-88
2023/05/27 10:19:58;;;;;;;;;;;24.40;56.80;;;;;;5105148;27;42830;-87
2023/05/27 10:22:23;;;;;;;;;;;24.40;56.70;;;;;;5105302;27;42979;-87
2023/05/27 10:24:50;;;;;;;;;;;24.40;56.80;;;;;;5095111;27;43451;-88
2023/05/27 10:27:15;;;;;;;;;;;24.40;56.50;;;;;;5088409;27;44220;-80
2023/05/27 10:29:41;;;;;;;;;;;24.40;56.70;;;;;;5088418;27;43012;-80
2023/05/27 10:32:07;;;;;;;;;;;24.50;56.90;;;;;;5083604;27;43578;-85
2023/05/27 10:34:43;;;;;;;;;;;24.50;56.80;;;;;;5084153;28;42978;-87
2023/05/27 10:37:10;;;;;;;;;;;24.50;55.50;;;;;;5089076;27;43133;-80
2023/05/27 10:39:36;;;;;;;;;;;24.50;55.20;;;;;;5091972;27;43145;-86
2023/05/27 10:42:02;;;;;;;;;;;24.50;55.20;;;;;;5095179;27;42949;-88
2023/05/27 10:44:28;;;;;;;;;;;24.50;55.20;;;;;;5097673;27;43004;-82
2023/05/27 10:47:03;;;;;;;;;;;24.40;54.30;;;;;;5098754;27;43396;-88
2023/05/27 10:49:35;;;;;;;;;;;24.50;54.40;;;;;;5098659;27;43370;-86
2023/05/27 10:52:12;;;;;;;;;;;24.40;53.50;;;;;;5095866;27;43355;-87
2023/05/27 10:54:42;;;;;;;;;;;24.50;53.80;;;;;;5100785;27;43069;-87
2023/05/27 10:57:08;;;;;;;;;;;24.50;53.60;;;;;;5097049;27;43061;-88
2023/05/27 10:59:50;;;;;;;;;;;24.40;53.40;;;;;;5093294;27;42941;-88
2023/05/27 11:02:16;;;;;;;;;;;24.50;53.90;;;;;;5094536;27;43540;-79
2023/05/27 11:04:42;;;;;;;;;;;24.50;53.50;;;;;;5097289;27;43029;-84
2023/05/27 11:07:08;;;;;;;;;;;24.50;53.30;;;;;;5094493;27;44313;-89
2023/05/27 11:09:48;;;;;;;;;;;24.40;53.20;;;;;;5095078;27;43115;-90
2023/05/27 11:12:17;;;;;;;;;;;24.50;53.30;;;;;;5097211;27;45222;-79
2023/05/27 11:14:43;;;;;;;;;;;24.40;52.80;;;;;;5096406;27;43183;-78
2023/05/27 11:17:10;;;;;;;;;;;24.40;52.80;;;;;;5091774;27;43118;-80
2023/05/27 11:19:35;;;;;;;;;;;24.40;52.50;;;;;;5094892;27;43001;-80
2023/05/27 11:22:01;;;;;;;;;;;24.40;52.50;;;;;;5092752;27;44019;-80
2023/05/27 11:24:26;;;;;;;;;;;24.40;52.30;;;;;;5095118;27;43053;-77
2023/05/27 11:26:52;;;;;;;;;;;24.40;52.50;;;;;;5094501;27;43505;-81
2023/05/27 11:29:17;;;;;;;;;;;24.50;53.10;;;;;;5096633;27;42970;-79
2023/05/27 11:31:46;;;;;;;;;;;24.50;53.20;;;;;;5092928;27;43506;-78
2023/05/27 11:34:15;;;;;;;;;;;24.50;53.30;;;;;;5086170;27;43155;-78
2023/05/27 11:36:41;;;;;;;;;;;24.50;53.20;;;;;;5086568;27;43601;-77
2023/05/27 11:39:10;;;;;;;;;;;24.50;53.10;;;;;;5084344;27;43092;-77
2023/05/27 11:41:35;;;;;;;;;;;24.50;53.20;;;;;;5089633;27;42929;-78
2023/05/27 11:44:04;;;;;;;;;;;24.50;53.20;;;;;;5084503;27;42868;-81
2023/05/27 11:46:42;;;;;;;;;;;24.50;53.20;;;;;;5083357;28;42925;-81
2023/05/27 11:49:10;;;;;;;;;;;24.50;52.80;;;;;;5083858;28;43038;-82
2023/05/27 11:51:39;;;;;;;;;;;24.50;52.50;;;;;;5094063;27;43130;-79
2023/05/27 11:54:05;;;;;;;;;;;24.50;52.70;;;;;;5092373;27;42931;-80
2023/05/27 11:56:30;;;;;;;;;;;24.30;52.10;;;;;;5092398;27;42891;-81
2023/05/27 11:58:56;;;;;;;;;;;24.50;52.50;;;;;;5084205;27;42918;-79
2023/05/27 12:01:22;;;;;;;;;;;24.50;52.50;;;;;;5083490;27;43158;-81
2023/05/27 12:03:47;;;;;;;;;;;24.50;52.10;;;;;;5084890;27;42962;-80
2023/05/27 12:06:13;;;;;;;;;;;24.50;52.60;;;;;;5082445;27;43164;-80
2023/05/27 12:08:39;;;;;;;;;;;24.50;52.20;;;;;;5091690;27;43257;-80
2023/05/27 12:11:04;;;;;;;;;;;24.50;52.80;;;;;;5092829;27;43297;-78
2023/05/27 12:13:31;;;;;;;;;;;24.50;52.70;;;;;;5093919;27;43101;-80
2023/05/27 12:15:57;;;;;;;;;;;24.50;52.20;;;;;;5090525;27;43382;-80
2023/05/27 12:18:23;;;;;;;;;;;24.50;52.60;;;;;;5090878;27;42970;-80
2023/05/27 12:20:48;;;;;;;;;;;24.50;52.10;;;;;;5090437;27;42898;-78
2023/05/27 12:23:14;;;;;;;;;;;24.50;52.70;;;;;;5090475;27;43149;-81
2023/05/27 12:25:39;;;;;;;;;;;24.50;52.50;;;;;;5087656;27;42999;-81
2023/05/27 12:28:08;;;;;;;;;;;24.50;52.60;;;;;;5088393;27;42994;-75
2023/05/27 12:30:35;;;;;;;;;;;24.50;52.50;;;;;;5092365;27;42957;-75
2023/05/27 12:33:01;;;;;;;;;;;24.50;52.70;;;;;;5090985;27;43837;-75
2023/05/27 12:35:26;;;;;;;;;;;24.50;52.60;;;;;;5086561;27;43954;-75
2023/05/27 12:37:52;;;;;;;;;;;24.60;53.30;;;;;;5075819;27;43127;-75
2023/05/27 12:40:18;;;;;;;;;;;24.60;53.30;;;;;;5097446;27;43486;-75
2023/05/27 12:42:43;;;;;;;;;;;24.70;52.90;;;;;;5092219;27;43023;-75
2023/05/27 12:45:10;;;;;;;;;;;24.70;53.50;;;;;;5092549;27;43852;-75
2023/05/27 12:47:36;;;;;;;;;;;24.70;53.60;;;;;;5083899;27;43008;-74
2023/05/27 12:50:01;;;;;;;;;;;24.70;53.70;;;;;;5101692;27;42869;-74
2023/05/27 12:52:28;;;;;;;;;;;24.70;53.90;;;;;;5103942;27;42993;-74
2023/05/27 12:54:53;;;;;;;;;;;24.70;53.90;;;;;;5102508;27;43875;-74
2023/05/27 12:57:19;;;;;;;;;;;24.80;54.10;;;;;;5099222;27;42977;-75
2023/05/27 12:59:45;;;;;;;;;;;24.70;54.10;;;;;;5092349;27;43382;-74
2023/05/27 13:02:10;;;;;;;;;;;24.70;53.70;;;;;;5095331;27;43826;-75
2023/05/27 13:04:36;;;;;;;;;;;24.80;54.40;;;;;;5093897;27;43841;-74
2023/05/27 13:07:01;;;;;;;;;;;24.80;54.00;;;;;;5097230;27;43267;-74
2023/05/27 13:09:27;;;;;;;;;;;24.80;54.50;;;;;;5092660;27;43878;-74
2023/05/27 13:11:52;;;;;;;;;;;24.80;54.50;;;;;;5073163;27;43077;-74
2023/05/27 13:14:18;;;;;;;;;;;24.80;54.70;;;;;;5094840;27;43636;-74
2023/05/27 13:16:43;;;;;;;;;;;24.70;54.70;;;;;;5096699;27;42961;-74
2023/05/27 13:19:09;;;;;;;;;;;26.70;55.60;;;;;;5072628;27;43154;-74
2023/05/27 13:21:35;;;;;;;;;;;24.80;54.50;;;;;;5090512;27;43538;-74
2023/05/27 13:24:01;;;;;;;;;;;24.80;55.00;;;;;;5086643;27;43110;-74
2023/05/27 13:26:28;;;;;;;;;;;24.80;55.10;;;;;;5089312;27;43090;-75
2023/05/27 13:28:54;;;;;;;;;;;24.80;55.20;;;;;;5092434;27;43332;-75
2023/05/27 13:31:20;;;;;;;;;;;24.80;54.70;;;;;;5088297;27;43072;-74
2023/05/27 13:33:46;;;;;;;;;;;24.80;55.30;;;;;;5095172;27;43318;-74
2023/05/27 13:36:12;;;;;;;;;;;24.80;55.40;;;;;;5087743;27;42957;-74
2023/05/27 13:38:38;;;;;;;;;;;24.80;55.50;;;;;;5084959;27;44005;-74
2023/05/27 13:41:04;;;;;;;;;;;24.80;55.50;;;;;;5086072;27;43040;-74
2023/05/27 13:43:29;;;;;;;;;;;24.80;55.70;;;;;;5094084;27;42966;-75
2023/05/27 13:45:55;;;;;;;;;;;24.80;55.90;;;;;;5086460;27;43545;-74
2023/05/27 13:48:20;;;;;;;;;;;24.80;55.90;;;;;;5088200;27;43373;-75
2023/05/27 13:50:46;;;;;;;;;;;24.80;55.70;;;;;;5089784;27;43171;-74
2023/05/27 13:53:11;;;;;;;;;;;24.70;55.70;;;;;;5089947;27;43023;-78
2023/05/27 13:55:37;;;;;;;;;;;24.70;56.20;;;;;;5087940;27;43429;-80
2023/05/27 13:58:03;;;;;;;;;;;24.80;55.40;;;;;;5075676;27;44492;-80
2023/05/27 14:00:30;;;;;;;;;;;24.70;55.30;;;;;;5077356;28;43450;-75
2023/05/27 14:02:58;;;;;;;;;;;24.80;55.10;;;;;;5091164;27;43063;-75
2023/05/27 14:05:23;;;;;;;;;;;24.70;54.30;;;;;;5086839;27;42977;-75
2023/05/27 14:07:49;;;;;;;;;;;24.70;54.50;;;;;;5087191;27;43149;-74
2023/05/27 14:10:15;;;;;;;;;;;24.70;53.50;;;;;;5074128;27;43360;-79